Matinburg, Texas
Current Conditions -  °F | °C
As of 4:15 PM on Monday 20 Oct 2014 (Local Time) from KOSA Reporting Station
Clear Clear  
Wind Chill: 78°   Ceiling: Unl
Heat Index: 79°   Visibility: 10mi
Dew Point: 55°   Wind: 6mph
Humidity: 46%   Direction: 50°NE
Pressure: 30.04"   Gusts: NA
Location:  32.9352°N, 94.9553°W
Report Text: KOSA 202115Z AUTO 05005KT 10SM CLR 26/13 A3004 RMK AO1 T02550130
Loading
Personal Weather Stations






























Interactive Weather Map
Tropical Storm Tracking
New forecast layout! Learn more

10-Day Weather Forecast

Advertisements
Track Severe Weather on mobile